Kenneth Carl — WDF8246 — position and weather

sailwx.info

Track history (hours):
 
Tides and Currents Weather Stations Pressure Air Temp Water Temp Dewpoint Dewpoint Depression Visibility Wind Speed Wind Dir Waves Ship Positions

Kenneth Carl

Owner: So. Cal. Ship Services, Inc., San Pedro, CA. More information available from US FCC via Universal Licensing System and Coast Guard Vessel Documentation Center.

Last reported at 2015-Apr-19 22:33 UTC. Time now 2015-Apr-19 22:54 UTC.
Position N 33°35' W 118°08'.

Length 31 m; draft 3 m.

Type: Ship. MMSI: 367492920.

Date/timePositionNaut miles runAvg speedWind from/ knotsBaromVisibWave heightAir tempDewpointWater temp
2015-Apr-19 22:33N 33°35' W 118°08'0 0.1
2015-Apr-19 21:33N 33°35' W 118°08'0 0.0
2015-Apr-19 20:33N 33°35' W 118°08'0 0.0
2015-Apr-19 19:33N 33°35' W 118°08'0 0.0
2015-Apr-19 18:33N 33°35' W 118°08'1 0.8
2015-Apr-19 17:29N 33°36' W 118°08'9 9.8
2015-Apr-19 16:33N 33°43' W 118°15'2 1.7
2015-Apr-19 15:33N 33°44' W 118°16'0 0.3
2015-Apr-19 14:22N 33°44' W 118°16'0 0.0
2015-Apr-19 13:33N 33°44' W 118°16'0 0.1
2015-Apr-19 12:33N 33°44' W 118°16'0 0.2
2015-Apr-19 11:17N 33°44' W 118°16'0 0.0
2015-Apr-19 10:30N 33°44' W 118°16'0 0.0
2015-Apr-19 09:33N 33°44' W 118°16'0 0.0
2015-Apr-19 08:31N 33°44' W 118°16'0 0.0
2015-Apr-19 07:33N 33°44' W 118°16'0 0.4
2015-Apr-19 06:33N 33°44' W 118°16'10 9.8
2015-Apr-19 05:33N 33°36' W 118°09'2 1.7
2015-Apr-19 04:33N 33°35' W 118°08'0 0.0
2015-Apr-19 03:33N 33°35' W 118°08'5 5.4
2015-Apr-19 02:33N 33°39' W 118°12'6 6.3
2015-Apr-19 01:33N 33°44' W 118°16'0 0.0
2015-Apr-19 00:33N 33°44' W 118°16'0 0.0
2015-Apr-18 23:33N 33°44' W 118°16'0 0.0
2015-Apr-18 22:33N 33°44' W 118°16'0 0.0
2015-Apr-18 21:33N 33°44' W 118°16'0 0.0
2015-Apr-18 20:33N 33°44' W 118°16'5 5.4
2015-Apr-18 19:33N 33°40' W 118°12'6 6.2
2015-Apr-18 18:33N 33°35' W 118°08'0 0.0
2015-Apr-18 17:33N 33°35' W 118°08'0 0.1
2015-Apr-18 16:33N 33°35' W 118°08'9 9.4
2015-Apr-18 15:33N 33°42' W 118°15'2 2.2
2015-Apr-18 14:33N 33°44' W 118°16'0 0.0
2015-Apr-18 13:33N 33°44' W 118°16'0 0.0
2015-Apr-18 12:33N 33°44' W 118°16'0 0.0
2015-Apr-18 11:33N 33°44' W 118°16'0 0.0
2015-Apr-18 10:33N 33°44' W 118°16'0 0.0
2015-Apr-18 09:33N 33°44' W 118°16'0 0.0
2015-Apr-18 08:33N 33°44' W 118°16'0 0.0
2015-Apr-18 07:33N 33°44' W 118°16'8 7.6
2015-Apr-18 06:33N 33°38' W 118°10'4 4.2
2015-Apr-18 05:33N 33°35' W 118°08'0 0.2
2015-Apr-18 04:33N 33°35' W 118°08'0 0.1
2015-Apr-18 03:33N 33°35' W 118°08'6 6.1
2015-Apr-18 02:33N 33°40' W 118°12'5 5.5
2015-Apr-18 01:33N 33°44' W 118°16'0 0.5
2015-Apr-18 00:33N 33°44' W 118°16'10 9.5
2015-Apr-17 23:33N 33°36' W 118°09'2 2.0
2015-Apr-17 22:33N 33°35' W 118°07'1 1.1
2015-Apr-17 21:33N 33°34' W 118°07'1 1.3
2015-Apr-17 20:33N 33°35' W 118°08'0 0.0
2015-Apr-17 19:33N 33°35' W 118°08'0 0.0
2015-Apr-17 18:33N 33°35' W 118°08'0 0.1
2015-Apr-17 17:33N 33°35' W 118°08'9 9.4
2015-Apr-17 16:33N 33°42' W 118°15'2 1.8
2015-Apr-17 15:23N 33°44' W 118°16'0 0.0
2015-Apr-17 14:27N 33°44' W 118°16'0 0.0
2015-Apr-17 12:30N 33°44' W 118°16'0 0.0
2015-Apr-17 09:09N 33°44' W 118°16'0 0.0
2015-Apr-17 08:33N 33°44' W 118°16'0 0.0
2015-Apr-17 06:08N 33°44' W 118°16'6 3.1
2015-Apr-17 04:20N 33°40' W 118°12'6 7.8
2015-Apr-17 03:33N 33°35' W 118°08'0 0.2
2015-Apr-17 02:33N 33°35' W 118°08'4 4.4
2015-Apr-17 01:33N 33°38' W 118°11'7 7.0
2015-Apr-17 00:30N 33°44' W 118°16'13 2.1
2015-Apr-16 18:31N 33°34' W 118°07'0 0.1
2015-Apr-16 17:33N 33°34' W 118°07'1 1.3
2015-Apr-16 16:33N 33°35' W 118°08'3 3.0
2015-Apr-16 15:33N 33°37' W 118°10'9 8.5
2015-Apr-16 14:32N 33°44' W 118°16'0 0.0
2015-Apr-16 13:33N 33°44' W 118°16'0 0.0
2015-Apr-16 12:33N 33°44' W 118°16'0 0.0
2015-Apr-16 11:33N 33°44' W 118°16'0 0.0
2015-Apr-16 10:33N 33°44' W 118°16'7 7.0
2015-Apr-16 09:33N 33°39' W 118°11'5 4.7
2015-Apr-16 08:33N 33°35' W 118°08'0 0.2
2015-Apr-16 07:33N 33°35' W 118°08'0 0.2
2015-Apr-16 06:33N 33°35' W 118°08'0 0.0
2015-Apr-16 05:32N 33°35' W 118°08'5 5.5
2015-Apr-16 04:33N 33°39' W 118°11'6 6.2
2015-Apr-16 03:33N 33°44' W 118°16'0 0.0
2015-Apr-16 02:33N 33°44' W 118°16'0 0.0
2015-Apr-16 01:33N 33°44' W 118°16'0 0.0
2015-Apr-16 00:33N 33°44' W 118°16'0 0.0
2015-Apr-15 23:33N 33°44' W 118°16'0 0.0
2015-Apr-15 22:33N 33°44' W 118°16'0 0.0
2015-Apr-15 21:33N 33°44' W 118°16'0 0.0
2015-Apr-15 20:33N 33°44' W 118°16'7 7.4
2015-Apr-15 19:33N 33°38' W 118°11'5 4.9
2015-Apr-15 18:33N 33°34' W 118°07'1 0.6
2015-Apr-15 17:33N 33°35' W 118°08'0 0.1
2015-Apr-15 16:33N 33°35' W 118°08'2 1.5
2015-Apr-15 15:33N 33°36' W 118°09'2 0.2
2015-Apr-15 05:33N 33°35' W 118°08'12 3.8
2015-Apr-15 02:32N 33°44' W 118°16'11 2.6
2015-Apr-14 22:15N 33°35' W 118°08'0 0.6
2015-Apr-14 21:33N 33°35' W 118°08'0 0.0
2015-Apr-14 20:25N 33°35' W 118°08'0 0.0
2015-Apr-14 19:28N 33°35' W 118°08'12 2.6
2015-Apr-14 15:03N 33°44' W 118°16'0 0.0
2015-Apr-14 11:09N 33°44' W 118°16'0 0.0
2015-Apr-14 10:32N 33°44' W 118°16'12 2.1
2015-Apr-14 05:05N 33°35' W 118°08'0 0.0
2015-Apr-14 04:07N 33°35' W 118°08'0 0.0
2015-Apr-14 03:14N 33°35' W 118°08'0 0.0
2015-Apr-14 02:29N 33°35' W 118°08'0 0.0
2015-Apr-14 01:23N 33°35' W 118°08'0 0.0
2015-Apr-14 00:33N 33°35' W 118°08'0 0.0
2015-Apr-13 23:33N 33°35' W 118°08'0 0.0
2015-Apr-13 22:30N 33°35' W 118°08'9 8.6
2015-Apr-13 21:30N 33°42' W 118°14'3 0.2
2015-Apr-13 08:12N 33°44' W 118°16'0 0.0
2015-Apr-13 07:32N 33°44' W 118°16'0 0.0
2015-Apr-13 06:33N 33°44' W 118°16'5 4.8
2015-Apr-13 05:32N 33°40' W 118°13'7 6.9
2015-Apr-13 04:33N 33°35' W 118°08'4 3.7
2015-Apr-13 03:33N 33°38' W 118°10'8 8.0
2015-Apr-13 02:33N 33°44' W 118°16'0 0.0
2015-Apr-13 01:33N 33°44' W 118°16'0 0.0
2015-Apr-13 00:33N 33°44' W 118°16'0 0.0
2015-Apr-12 23:33N 33°44' W 118°16'0 0.0
2015-Apr-12 22:33N 33°44' W 118°16'0 0.0
2015-Apr-12 21:33N 33°44' W 118°16'0 0.4
2015-Apr-12 20:33N 33°44' W 118°16'0 0.0
2015-Apr-12 19:33N 33°44' W 118°16'8 6.5
2015-Apr-12 18:21N 33°38' W 118°10'4 4.7
2015-Apr-12 17:33N 33°35' W 118°08'0 0.1
2015-Apr-12 16:31N 33°35' W 118°08'5 4.4
2015-Apr-12 15:20N 33°39' W 118°12'6 7.0
2015-Apr-12 14:25N 33°44' W 118°16'0 0.0
2015-Apr-12 13:33N 33°44' W 118°16'0 0.0
2015-Apr-12 12:30N 33°44' W 118°16'0 0.0
2015-Apr-12 05:33N 33°44' W 118°16'0 0.0
2015-Apr-12 04:33N 33°44' W 118°16'8 7.8
2015-Apr-12 03:33N 33°38' W 118°10'4 3.8
2015-Apr-12 02:33N 33°35' W 118°08'0 0.0
2015-Apr-12 01:33N 33°35' W 118°08'7 7.0
2015-Apr-12 00:31N 33°41' W 118°13'4 4.4
2015-Apr-11 23:31N 33°44' W 118°16'4 4.3
2015-Apr-11 22:30N 33°41' W 118°13'7 7.6
2015-Apr-11 21:33N 33°35' W 118°08'0 0.1
2015-Apr-11 20:33N 33°35' W 118°08'0 0.0
2015-Apr-11 19:33N 33°35' W 118°08'0 0.0
2015-Apr-11 18:33N 33°35' W 118°08'1 1.2
2015-Apr-11 17:33N 33°34' W 118°07'13 5.2
2015-Apr-11 15:06N 33°44' W 118°16'0 0.0
2015-Apr-11 11:05N 33°44' W 118°16'0 0.0
2015-Apr-11 06:09N 33°44' W 118°16'0 0.0
2015-Apr-11 05:15N 33°44' W 118°16'0 0.0
2015-Apr-11 04:13N 33°44' W 118°16'6 8.7
2015-Apr-11 03:33N 33°40' W 118°12'6 5.9
2015-Apr-11 02:33N 33°35' W 118°08'3 2.8
2015-Apr-11 01:33N 33°37' W 118°09'9 8.9
2015-Apr-11 00:34N 33°44' W 118°16'0 0.0
2015-Apr-10 23:33N 33°44' W 118°16'0 0.0
2015-Apr-10 22:25N 33°44' W 118°16'12 6.2
2015-Apr-10 20:33N 33°35' W 118°08'1 1.2
2015-Apr-10 19:29N 33°34' W 118°07'1 0.1
2015-Apr-10 03:31N 33°35' W 118°08'0 0.1
2015-Apr-10 02:33N 33°35' W 118°08'1010.0
2015-Apr-10 01:33N 33°43' W 118°15'2 1.6
2015-Apr-10 00:32N 33°44' W 118°16'4 4.2
2015-Apr-09 23:28N 33°41' W 118°13'7 7.9
2015-Apr-09 22:33N 33°35' W 118°08'  
Track history (hours):
 
Tides and Currents Weather Stations Pressure Air Temp Water Temp Dewpoint Dewpoint Depression Visibility Wind Speed Wind Dir Waves Ship Positions

Kenneth Carl

Owner: So. Cal. Ship Services, Inc., San Pedro, CA. More information available from US FCC via Universal Licensing System and Coast Guard Vessel Documentation Center.

Last reported at 2015-Apr-19 22:33 UTC. Time now 2015-Apr-19 22:54 UTC.
Position N 33°35' W 118°08'.

Length 31 m; draft 3 m.

Type: Ship. MMSI: 367492920.

Date/timePositionNaut miles runAvg speedWind from/ knotsBaromVisibWave heightAir tempDewpointWater temp
2015-Apr-19 22:33N 33°35' W 118°08'0 0.1
2015-Apr-19 21:33N 33°35' W 118°08'0 0.0
2015-Apr-19 20:33N 33°35' W 118°08'0 0.0
2015-Apr-19 19:33N 33°35' W 118°08'0 0.0
2015-Apr-19 18:33N 33°35' W 118°08'1 0.8
2015-Apr-19 17:29N 33°36' W 118°08'9 9.8
2015-Apr-19 16:33N 33°43' W 118°15'2 1.7
2015-Apr-19 15:33N 33°44' W 118°16'0 0.3
2015-Apr-19 14:22N 33°44' W 118°16'0 0.0
2015-Apr-19 13:33N 33°44' W 118°16'0 0.1
2015-Apr-19 12:33N 33°44' W 118°16'0 0.2
2015-Apr-19 11:17N 33°44' W 118°16'0 0.0
2015-Apr-19 10:30N 33°44' W 118°16'0 0.0
2015-Apr-19 09:33N 33°44' W 118°16'0 0.0
2015-Apr-19 08:31N 33°44' W 118°16'0 0.0
2015-Apr-19 07:33N 33°44' W 118°16'0 0.4
2015-Apr-19 06:33N 33°44' W 118°16'10 9.8
2015-Apr-19 05:33N 33°36' W 118°09'2 1.7
2015-Apr-19 04:33N 33°35' W 118°08'0 0.0
2015-Apr-19 03:33N 33°35' W 118°08'5 5.4
2015-Apr-19 02:33N 33°39' W 118°12'6 6.3
2015-Apr-19 01:33N 33°44' W 118°16'0 0.0
2015-Apr-19 00:33N 33°44' W 118°16'0 0.0
2015-Apr-18 23:33N 33°44' W 118°16'0 0.0
2015-Apr-18 22:33N 33°44' W 118°16'0 0.0
2015-Apr-18 21:33N 33°44' W 118°16'0 0.0
2015-Apr-18 20:33N 33°44' W 118°16'5 5.4
2015-Apr-18 19:33N 33°40' W 118°12'6 6.2
2015-Apr-18 18:33N 33°35' W 118°08'0 0.0
2015-Apr-18 17:33N 33°35' W 118°08'0 0.1
2015-Apr-18 16:33N 33°35' W 118°08'9 9.4
2015-Apr-18 15:33N 33°42' W 118°15'2 2.2
2015-Apr-18 14:33N 33°44' W 118°16'0 0.0
2015-Apr-18 13:33N 33°44' W 118°16'0 0.0
2015-Apr-18 12:33N 33°44' W 118°16'0 0.0
2015-Apr-18 11:33N 33°44' W 118°16'0 0.0
2015-Apr-18 10:33N 33°44' W 118°16'0 0.0
2015-Apr-18 09:33N 33°44' W 118°16'0 0.0
2015-Apr-18 08:33N 33°44' W 118°16'0 0.0
2015-Apr-18 07:33N 33°44' W 118°16'8 7.6
2015-Apr-18 06:33N 33°38' W 118°10'4 4.2
2015-Apr-18 05:33N 33°35' W 118°08'0 0.2
2015-Apr-18 04:33N 33°35' W 118°08'0 0.1
2015-Apr-18 03:33N 33°35' W 118°08'6 6.1
2015-Apr-18 02:33N 33°40' W 118°12'5 5.5
2015-Apr-18 01:33N 33°44' W 118°16'0 0.5
2015-Apr-18 00:33N 33°44' W 118°16'10 9.5
2015-Apr-17 23:33N 33°36' W 118°09'2 2.0
2015-Apr-17 22:33N 33°35' W 118°07'1 1.1
2015-Apr-17 21:33N 33°34' W 118°07'1 1.3
2015-Apr-17 20:33N 33°35' W 118°08'0 0.0
2015-Apr-17 19:33N 33°35' W 118°08'0 0.0
2015-Apr-17 18:33N 33°35' W 118°08'0 0.1
2015-Apr-17 17:33N 33°35' W 118°08'9 9.4
2015-Apr-17 16:33N 33°42' W 118°15'2 1.8
2015-Apr-17 15:23N 33°44' W 118°16'0 0.0
2015-Apr-17 14:27N 33°44' W 118°16'0 0.0
2015-Apr-17 12:30N 33°44' W 118°16'0 0.0
2015-Apr-17 09:09N 33°44' W 118°16'0 0.0
2015-Apr-17 08:33N 33°44' W 118°16'0 0.0
2015-Apr-17 06:08N 33°44' W 118°16'6 3.1
2015-Apr-17 04:20N 33°40' W 118°12'6 7.8
2015-Apr-17 03:33N 33°35' W 118°08'0 0.2
2015-Apr-17 02:33N 33°35' W 118°08'4 4.4
2015-Apr-17 01:33N 33°38' W 118°11'7 7.0
2015-Apr-17 00:30N 33°44' W 118°16'13 2.1
2015-Apr-16 18:31N 33°34' W 118°07'0 0.1
2015-Apr-16 17:33N 33°34' W 118°07'1 1.3
2015-Apr-16 16:33N 33°35' W 118°08'3 3.0
2015-Apr-16 15:33N 33°37' W 118°10'9 8.5
2015-Apr-16 14:32N 33°44' W 118°16'0 0.0
2015-Apr-16 13:33N 33°44' W 118°16'0 0.0
2015-Apr-16 12:33N 33°44' W 118°16'0 0.0
2015-Apr-16 11:33N 33°44' W 118°16'0 0.0
2015-Apr-16 10:33N 33°44' W 118°16'7 7.0
2015-Apr-16 09:33N 33°39' W 118°11'5 4.7
2015-Apr-16 08:33N 33°35' W 118°08'0 0.2
2015-Apr-16 07:33N 33°35' W 118°08'0 0.2
2015-Apr-16 06:33N 33°35' W 118°08'0 0.0
2015-Apr-16 05:32N 33°35' W 118°08'5 5.5
2015-Apr-16 04:33N 33°39' W 118°11'6 6.2
2015-Apr-16 03:33N 33°44' W 118°16'0 0.0
2015-Apr-16 02:33N 33°44' W 118°16'0 0.0
2015-Apr-16 01:33N 33°44' W 118°16'0 0.0
2015-Apr-16 00:33N 33°44' W 118°16'0 0.0
2015-Apr-15 23:33N 33°44' W 118°16'0 0.0
2015-Apr-15 22:33N 33°44' W 118°16'0 0.0
2015-Apr-15 21:33N 33°44' W 118°16'0 0.0
2015-Apr-15 20:33N 33°44' W 118°16'7 7.4
2015-Apr-15 19:33N 33°38' W 118°11'5 4.9
2015-Apr-15 18:33N 33°34' W 118°07'1 0.6
2015-Apr-15 17:33N 33°35' W 118°08'0 0.1
2015-Apr-15 16:33N 33°35' W 118°08'2 1.5
2015-Apr-15 15:33N 33°36' W 118°09'2 0.2
2015-Apr-15 05:33N 33°35' W 118°08'12 3.8
2015-Apr-15 02:32N 33°44' W 118°16'11 2.6
2015-Apr-14 22:15N 33°35' W 118°08'0 0.6
2015-Apr-14 21:33N 33°35' W 118°08'0 0.0
2015-Apr-14 20:25N 33°35' W 118°08'0 0.0
2015-Apr-14 19:28N 33°35' W 118°08'12 2.6
2015-Apr-14 15:03N 33°44' W 118°16'0 0.0
2015-Apr-14 11:09N 33°44' W 118°16'0 0.0
2015-Apr-14 10:32N 33°44' W 118°16'12 2.1
2015-Apr-14 05:05N 33°35' W 118°08'0 0.0
2015-Apr-14 04:07N 33°35' W 118°08'0 0.0
2015-Apr-14 03:14N 33°35' W 118°08'0 0.0
2015-Apr-14 02:29N 33°35' W 118°08'0 0.0
2015-Apr-14 01:23N 33°35' W 118°08'0 0.0
2015-Apr-14 00:33N 33°35' W 118°08'0 0.0
2015-Apr-13 23:33N 33°35' W 118°08'0 0.0
2015-Apr-13 22:30N 33°35' W 118°08'9 8.6
2015-Apr-13 21:30N 33°42' W 118°14'3 0.2
2015-Apr-13 08:12N 33°44' W 118°16'0 0.0
2015-Apr-13 07:32N 33°44' W 118°16'0 0.0
2015-Apr-13 06:33N 33°44' W 118°16'5 4.8
2015-Apr-13 05:32N 33°40' W 118°13'7 6.9
2015-Apr-13 04:33N 33°35' W 118°08'4 3.7
2015-Apr-13 03:33N 33°38' W 118°10'8 8.0
2015-Apr-13 02:33N 33°44' W 118°16'0 0.0
2015-Apr-13 01:33N 33°44' W 118°16'0 0.0
2015-Apr-13 00:33N 33°44' W 118°16'0 0.0
2015-Apr-12 23:33N 33°44' W 118°16'0 0.0
2015-Apr-12 22:33N 33°44' W 118°16'0 0.0
2015-Apr-12 21:33N 33°44' W 118°16'0 0.4
2015-Apr-12 20:33N 33°44' W 118°16'0 0.0
2015-Apr-12 19:33N 33°44' W 118°16'8 6.5
2015-Apr-12 18:21N 33°38' W 118°10'4 4.7
2015-Apr-12 17:33N 33°35' W 118°08'0 0.1
2015-Apr-12 16:31N 33°35' W 118°08'5 4.4
2015-Apr-12 15:20N 33°39' W 118°12'6 7.0
2015-Apr-12 14:25N 33°44' W 118°16'0 0.0
2015-Apr-12 13:33N 33°44' W 118°16'0 0.0
2015-Apr-12 12:30N 33°44' W 118°16'0 0.0
2015-Apr-12 05:33N 33°44' W 118°16'0 0.0
2015-Apr-12 04:33N 33°44' W 118°16'8 7.8
2015-Apr-12 03:33N 33°38' W 118°10'4 3.8
2015-Apr-12 02:33N 33°35' W 118°08'0 0.0
2015-Apr-12 01:33N 33°35' W 118°08'7 7.0
2015-Apr-12 00:31N 33°41' W 118°13'4 4.4
2015-Apr-11 23:31N 33°44' W 118°16'4 4.3
2015-Apr-11 22:30N 33°41' W 118°13'7 7.6
2015-Apr-11 21:33N 33°35' W 118°08'0 0.1
2015-Apr-11 20:33N 33°35' W 118°08'0 0.0
2015-Apr-11 19:33N 33°35' W 118°08'0 0.0
2015-Apr-11 18:33N 33°35' W 118°08'1 1.2
2015-Apr-11 17:33N 33°34' W 118°07'13 5.2
2015-Apr-11 15:06N 33°44' W 118°16'0 0.0
2015-Apr-11 11:05N 33°44' W 118°16'0 0.0
2015-Apr-11 06:09N 33°44' W 118°16'0 0.0
2015-Apr-11 05:15N 33°44' W 118°16'0 0.0
2015-Apr-11 04:13N 33°44' W 118°16'6 8.7
2015-Apr-11 03:33N 33°40' W 118°12'6 5.9
2015-Apr-11 02:33N 33°35' W 118°08'3 2.8
2015-Apr-11 01:33N 33°37' W 118°09'9 8.9
2015-Apr-11 00:34N 33°44' W 118°16'0 0.0
2015-Apr-10 23:33N 33°44' W 118°16'0 0.0
2015-Apr-10 22:25N 33°44' W 118°16'12 6.2
2015-Apr-10 20:33N 33°35' W 118°08'1 1.2
2015-Apr-10 19:29N 33°34' W 118°07'1 0.1
2015-Apr-10 03:31N 33°35' W 118°08'0 0.1
2015-Apr-10 02:33N 33°35' W 118°08'1010.0
2015-Apr-10 01:33N 33°43' W 118°15'2 1.6
2015-Apr-10 00:32N 33°44' W 118°16'4 4.2
2015-Apr-09 23:28N 33°41' W 118°13'7 7.9
2015-Apr-09 22:33N 33°35' W 118°08'  

Dump ship's entire track history